Eftichia — C6ZI4 — position and weather

sailwx.info

Track history (hours):
 
Tides and Currents Weather Stations Pressure Air Temp Water Temp Dewpoint Dewpoint Depression Visibility Wind Speed Wind Dir Waves Ship Positions

Eftichia

Last reported at 2017-Jun-25 04:38 UTC. Time now 2017-Jun-26 19:17 UTC.
Position N 36°53' W 013°02'.

Length 181 m; draft 6.1 m.

Type: Cargo ship. MMSI: 311033882.

Date/timePositionNaut miles runAvg speedWind from/ knotsBaromVisibWave heightAir tempDewpointWater temp
2017-Jun-25 04:38N 36°53' W 013°02'2012.7
2017-Jun-25 03:02N 36°48' W 012°37'012.9
2017-Jun-25 03:00N 36°48' W 012°37'2512.8
2017-Jun-25 01:04N 36°42' W 012°07'112.6
2017-Jun-25 01:00N 36°41' W 012°06'612.7
2017-Jun-25 00:30N 36°40' W 011°58'612.5
2017-Jun-25 00:01N 36°38' W 011°51'712.6
2017-Jun-24 23:29N 36°36' W 011°43'613.3
2017-Jun-24 23:00N 36°35' W 011°35'713.8
2017-Jun-24 22:31N 36°33' W 011°27'712.9
2017-Jun-24 22:00N 36°32' W 011°19'612.4
2017-Jun-24 21:30N 36°30' W 011°11'612.6
2017-Jun-24 21:00N 36°28' W 011°04'612.6
2017-Jun-24 20:30N 36°27' W 010°56'813.1
2017-Jun-24 19:53N 36°25' W 010°46'813.4
2017-Jun-24 19:17N 36°23' W 010°37'413.3
2017-Jun-24 19:00N 36°22' W 010°32'713.4
2017-Jun-24 18:31N 36°20' W 010°24'713.6
2017-Jun-24 18:01N 36°19' W 010°16'713.3
2017-Jun-24 17:31N 36°17' W 010°08'612.8
2017-Jun-24 17:00N 36°15' W 010°00'612.7
2017-Jun-24 16:30N 36°13' W 009°53'612.7
2017-Jun-24 16:00N 36°12' W 009°45'1412.7
2017-Jun-24 14:56N 36°08' W 009°29'1212.6
2017-Jun-24 14:01N 36°06' W 009°15'612.4
2017-Jun-24 13:30N 36°04' W 009°08'612.0
2017-Jun-24 13:00N 36°03' W 009°00'612.0
2017-Jun-24 12:30N 36°03' W 008°53'612.6
2017-Jun-24 12:00N 36°02' W 008°45'812.5
2017-Jun-24 11:20N 36°01' W 008°35'512.9
2017-Jun-24 10:58N 36°01' W 008°29'1213.1
2017-Jun-24 10:03N 36°00' W 008°14'113.2
2017-Jun-24 09:59N 36°00' W 008°13'613.4
2017-Jun-24 09:30N 35°60' W 008°05'713.5
2017-Jun-24 09:00N 35°60' W 007°57'713.4
2017-Jun-24 08:31N 35°59' W 007°49'713.5
2017-Jun-24 07:58N 35°59' W 007°39'613.6
2017-Jun-24 07:31N 35°59' W 007°32'813.9
2017-Jun-24 06:57N 35°59' W 007°22'713.3
2017-Jun-24 06:24N 35°58' W 007°13'613.3
2017-Jun-24 05:58N 35°58' W 007°06'913.3
2017-Jun-24 05:20N 35°59' W 006°56'6512.9
2017-Jun-24 00:15N 35°57' W 005°35'312.8
2017-Jun-24 00:01N 35°58' W 005°31'611.0
2017-Jun-23 23:30N 35°58' W 005°24'5 9.1
2017-Jun-23 23:01N 35°55' W 005°21'1 1.0
2017-Jun-23 22:28N 35°55' W 005°20'0 0.0
2017-Jun-23 21:59N 35°55' W 005°20'0 0.0
2017-Jun-23 21:28N 35°55' W 005°20'0 0.1
2017-Jun-23 20:58N 35°55' W 005°20'0 0.0
2017-Jun-23 20:28N 35°55' W 005°20'0 0.0
2017-Jun-23 19:58N 35°55' W 005°20'0 0.1
2017-Jun-23 19:30N 35°55' W 005°20'0 0.0
2017-Jun-23 18:58N 35°55' W 005°20'0 0.0
2017-Jun-23 18:28N 35°55' W 005°20'0 0.0
2017-Jun-23 17:58N 35°55' W 005°20'0 0.0
2017-Jun-23 17:28N 35°55' W 005°20'0 0.0
2017-Jun-23 16:58N 35°55' W 005°20'0 0.2
2017-Jun-23 16:28N 35°55' W 005°20'0 0.2
2017-Jun-23 15:58N 35°55' W 005°20'0 0.0
2017-Jun-23 15:28N 35°55' W 005°20'0 0.1
2017-Jun-23 14:58N 35°55' W 005°20'0 0.0
2017-Jun-23 14:28N 35°55' W 005°20'0 0.1
2017-Jun-23 13:30N 35°55' W 005°20'0 0.3
2017-Jun-23 12:58N 35°55' W 005°20'0 0.1
2017-Jun-23 12:28N 35°55' W 005°20'0 0.0
2017-Jun-23 12:00N 35°55' W 005°20'0 0.0
2017-Jun-23 11:28N 35°55' W 005°20'0 0.1
2017-Jun-23 10:58N 35°55' W 005°20'0 0.8
2017-Jun-23 10:30N 35°55' W 005°20'2 3.2
2017-Jun-23 10:01N 35°55' W 005°18'2 3.9
2017-Jun-23 09:30N 35°55' W 005°15'5 6.8
2017-Jun-23 08:50N 35°54' W 005°10'410.1
2017-Jun-23 08:28N 35°54' W 005°05'19612.5
2017-Jun-22 16:47N 36°16' W 001°05'413.3
2017-Jun-22 16:27N 36°18' W 000°60'613.3
2017-Jun-22 15:59N 36°20' W 000°53'713.4
2017-Jun-22 15:30N 36°22' W 000°45'713.1
2017-Jun-22 14:59N 36°24' W 000°37'612.8
2017-Jun-22 14:30N 36°25' W 000°29'1313.0
2017-Jun-22 13:30N 36°30' W 000°14'613.0
2017-Jun-22 13:00N 36°32' W 000°07'713.1
2017-Jun-22 12:30N 36°33' E 000°01'713.2
2017-Jun-22 12:00N 36°35' E 000°09'713.3
2017-Jun-22 11:30N 36°37' E 000°17'713.3
2017-Jun-22 11:00N 36°38' E 000°25'713.3
2017-Jun-22 10:30N 36°39' E 000°33'713.1
2017-Jun-22 10:00N 36°41' E 000°41'713.2
2017-Jun-22 09:30N 36°43' E 000°49'713.3
2017-Jun-22 09:00N 36°44' E 000°57'713.3
2017-Jun-22 08:30N 36°46' E 001°05'713.5
2017-Jun-22 08:00N 36°48' E 001°13'713.7
2017-Jun-22 07:30N 36°50' E 001°22'713.7
2017-Jun-22 07:00N 36°51' E 001°30'713.4
2017-Jun-22 06:30N 36°53' E 001°38'713.3
2017-Jun-22 06:00N 36°54' E 001°46'713.4
2017-Jun-22 05:30N 36°56' E 001°55'713.4
2017-Jun-22 04:58N 36°57' E 002°03'613.2
2017-Jun-22 04:30N 36°58' E 002°11'713.2
2017-Jun-22 04:00N 36°60' E 002°19'713.1
2017-Jun-22 03:30N 37°01' E 002°27'613.0
2017-Jun-22 03:00N 37°03' E 002°35'613.0
2017-Jun-22 02:30N 37°05' E 002°43'713.2
2017-Jun-22 02:01N 37°06' E 002°51'713.2
2017-Jun-22 01:27N 37°07' E 002°59'613.1
2017-Jun-22 01:00N 37°09' E 003°07'713.2
2017-Jun-22 00:30N 37°11' E 003°15'713.3
2017-Jun-21 23:57N 37°12' E 003°24'613.3
2017-Jun-21 23:30N 37°14' E 003°31'813.3
2017-Jun-21 22:55N 37°15' E 003°41'713.3
2017-Jun-21 22:24N 37°16' E 003°49'513.3
2017-Jun-21 22:00N 37°16' E 003°56'713.2
2017-Jun-21 21:30N 37°17' E 004°04'612.8
2017-Jun-21 21:00N 37°18' E 004°12'713.1
2017-Jun-21 20:30N 37°19' E 004°20'713.2
2017-Jun-21 20:00N 37°20' E 004°28'713.3
2017-Jun-21 19:30N 37°19' E 004°37'713.4
2017-Jun-21 19:00N 37°19' E 004°45'713.4
2017-Jun-21 18:29N 37°19' E 004°54'2813.2
2017-Jun-21 16:22N 37°19' E 005°29'913.0
2017-Jun-21 15:39N 37°19' E 005°41'212.9
2017-Jun-21 15:28N 37°19' E 005°44'612.8
2017-Jun-21 15:00N 37°19' E 005°51'2113.1
2017-Jun-21 13:24N 37°19' E 006°17'512.9
2017-Jun-21 13:00N 37°19' E 006°24'712.9
2017-Jun-21 12:28N 37°19' E 006°33'713.1
2017-Jun-21 11:57N 37°19' E 006°41'612.9
2017-Jun-21 11:30N 37°20' E 006°48'6213.1
2017-Jun-21 06:44N 37°18' E 008°07'312.9
2017-Jun-21 06:29N 37°17' E 008°11'612.8
2017-Jun-21 06:00N 37°17' E 008°19'713.3
2017-Jun-21 05:30N 37°18' E 008°27'6412.9
2017-Jun-21 00:33N 37°35' E 009°44'112.7
2017-Jun-21 00:30N 37°35' E 009°45'2812.4
2017-Jun-20 22:15N 37°38' E 010°20'3712.8
2017-Jun-20 19:20N 37°29' E 011°06'3613.4
2017-Jun-20 16:40N 37°12' E 011°45'313.3
2017-Jun-20 16:28N 37°11' E 011°48'613.4
2017-Jun-20 16:00N 37°08' E 011°55'713.1
2017-Jun-20 15:26N 37°05' E 012°04'613.2
2017-Jun-20 15:00N 37°03' E 012°11'1313.1
2017-Jun-20 14:00N 36°59' E 012°26'713.5
2017-Jun-20 13:30N 36°56' E 012°34'713.7
2017-Jun-20 13:00N 36°53' E 012°42'713.2
2017-Jun-20 12:30N 36°52' E 012°50'713.2
2017-Jun-20 12:00N 36°50' E 012°58'713.5
2017-Jun-20 11:30N 36°48' E 013°06'713.4
2017-Jun-20 11:00N 36°46' E 013°14'713.2
2017-Jun-20 10:30N 36°44' E 013°22'713.1
2017-Jun-20 10:00N 36°42' E 013°30'713.1
2017-Jun-20 09:30N 36°41' E 013°38'713.1
2017-Jun-20 09:00N 36°39' E 013°45'613.1
2017-Jun-20 08:30N 36°37' E 013°53'713.4
2017-Jun-20 08:00N 36°34' E 014°01'713.5
2017-Jun-20 07:30N 36°32' E 014°09'713.4
2017-Jun-20 07:00N 36°29' E 014°16'713.2
2017-Jun-20 06:30N 36°27' E 014°24'713.1
2017-Jun-20 06:00N 36°26' E 014°32'713.1
2017-Jun-20 05:30N 36°24' E 014°40'713.2
2017-Jun-20 05:00N 36°22' E 014°47'713.3
2017-Jun-20 04:28N 36°20' E 014°56'613.1
2017-Jun-20 03:59N 36°19' E 015°04'44310.1
2017-Jun-18 08:19N 37°37' E 024°09'914.1
2017-Jun-18 07:40N 37°43' E 024°17'13513.4
2017-Jun-17 21:38N 39°41' E 025°41'613.4
2017-Jun-17 21:09N 39°47' E 025°44'313.3
2017-Jun-17 20:57N 39°50' E 025°45'  
2017-Jun-15 12:25N 46°19' E 030°55'410.2
2017-Jun-15 11:59N 46°23' E 030°55'510.0
2017-Jun-15 11:30N 46°28' E 030°55'5 8.2
2017-Jun-15 10:52N 46°33' E 030°58'  
Track history (hours):
 
Tides and Currents Weather Stations Pressure Air Temp Water Temp Dewpoint Dewpoint Depression Visibility Wind Speed Wind Dir Waves Ship Positions

Eftichia

Last reported at 2017-Jun-25 04:38 UTC. Time now 2017-Jun-26 19:17 UTC.
Position N 36°53' W 013°02'.

Length 181 m; draft 6.1 m.

Type: Cargo ship. MMSI: 311033882.

Date/timePositionNaut miles runAvg speedWind from/ knotsBaromVisibWave heightAir tempDewpointWater temp
2017-Jun-25 04:38N 36°53' W 013°02'2012.7
2017-Jun-25 03:02N 36°48' W 012°37'012.9
2017-Jun-25 03:00N 36°48' W 012°37'2512.8
2017-Jun-25 01:04N 36°42' W 012°07'112.6
2017-Jun-25 01:00N 36°41' W 012°06'612.7
2017-Jun-25 00:30N 36°40' W 011°58'612.5
2017-Jun-25 00:01N 36°38' W 011°51'712.6
2017-Jun-24 23:29N 36°36' W 011°43'613.3
2017-Jun-24 23:00N 36°35' W 011°35'713.8
2017-Jun-24 22:31N 36°33' W 011°27'712.9
2017-Jun-24 22:00N 36°32' W 011°19'612.4
2017-Jun-24 21:30N 36°30' W 011°11'612.6
2017-Jun-24 21:00N 36°28' W 011°04'612.6
2017-Jun-24 20:30N 36°27' W 010°56'813.1
2017-Jun-24 19:53N 36°25' W 010°46'813.4
2017-Jun-24 19:17N 36°23' W 010°37'413.3
2017-Jun-24 19:00N 36°22' W 010°32'713.4
2017-Jun-24 18:31N 36°20' W 010°24'713.6
2017-Jun-24 18:01N 36°19' W 010°16'713.3
2017-Jun-24 17:31N 36°17' W 010°08'612.8
2017-Jun-24 17:00N 36°15' W 010°00'612.7
2017-Jun-24 16:30N 36°13' W 009°53'612.7
2017-Jun-24 16:00N 36°12' W 009°45'1412.7
2017-Jun-24 14:56N 36°08' W 009°29'1212.6
2017-Jun-24 14:01N 36°06' W 009°15'612.4
2017-Jun-24 13:30N 36°04' W 009°08'612.0
2017-Jun-24 13:00N 36°03' W 009°00'612.0
2017-Jun-24 12:30N 36°03' W 008°53'612.6
2017-Jun-24 12:00N 36°02' W 008°45'812.5
2017-Jun-24 11:20N 36°01' W 008°35'512.9
2017-Jun-24 10:58N 36°01' W 008°29'1213.1
2017-Jun-24 10:03N 36°00' W 008°14'113.2
2017-Jun-24 09:59N 36°00' W 008°13'613.4
2017-Jun-24 09:30N 35°60' W 008°05'713.5
2017-Jun-24 09:00N 35°60' W 007°57'713.4
2017-Jun-24 08:31N 35°59' W 007°49'713.5
2017-Jun-24 07:58N 35°59' W 007°39'613.6
2017-Jun-24 07:31N 35°59' W 007°32'813.9
2017-Jun-24 06:57N 35°59' W 007°22'713.3
2017-Jun-24 06:24N 35°58' W 007°13'613.3
2017-Jun-24 05:58N 35°58' W 007°06'913.3
2017-Jun-24 05:20N 35°59' W 006°56'6512.9
2017-Jun-24 00:15N 35°57' W 005°35'312.8
2017-Jun-24 00:01N 35°58' W 005°31'611.0
2017-Jun-23 23:30N 35°58' W 005°24'5 9.1
2017-Jun-23 23:01N 35°55' W 005°21'1 1.0
2017-Jun-23 22:28N 35°55' W 005°20'0 0.0
2017-Jun-23 21:59N 35°55' W 005°20'0 0.0
2017-Jun-23 21:28N 35°55' W 005°20'0 0.1
2017-Jun-23 20:58N 35°55' W 005°20'0 0.0
2017-Jun-23 20:28N 35°55' W 005°20'0 0.0
2017-Jun-23 19:58N 35°55' W 005°20'0 0.1
2017-Jun-23 19:30N 35°55' W 005°20'0 0.0
2017-Jun-23 18:58N 35°55' W 005°20'0 0.0
2017-Jun-23 18:28N 35°55' W 005°20'0 0.0
2017-Jun-23 17:58N 35°55' W 005°20'0 0.0
2017-Jun-23 17:28N 35°55' W 005°20'0 0.0
2017-Jun-23 16:58N 35°55' W 005°20'0 0.2
2017-Jun-23 16:28N 35°55' W 005°20'0 0.2
2017-Jun-23 15:58N 35°55' W 005°20'0 0.0
2017-Jun-23 15:28N 35°55' W 005°20'0 0.1
2017-Jun-23 14:58N 35°55' W 005°20'0 0.0
2017-Jun-23 14:28N 35°55' W 005°20'0 0.1
2017-Jun-23 13:30N 35°55' W 005°20'0 0.3
2017-Jun-23 12:58N 35°55' W 005°20'0 0.1
2017-Jun-23 12:28N 35°55' W 005°20'0 0.0
2017-Jun-23 12:00N 35°55' W 005°20'0 0.0
2017-Jun-23 11:28N 35°55' W 005°20'0 0.1
2017-Jun-23 10:58N 35°55' W 005°20'0 0.8
2017-Jun-23 10:30N 35°55' W 005°20'2 3.2
2017-Jun-23 10:01N 35°55' W 005°18'2 3.9
2017-Jun-23 09:30N 35°55' W 005°15'5 6.8
2017-Jun-23 08:50N 35°54' W 005°10'410.1
2017-Jun-23 08:28N 35°54' W 005°05'19612.5
2017-Jun-22 16:47N 36°16' W 001°05'413.3
2017-Jun-22 16:27N 36°18' W 000°60'613.3
2017-Jun-22 15:59N 36°20' W 000°53'713.4
2017-Jun-22 15:30N 36°22' W 000°45'713.1
2017-Jun-22 14:59N 36°24' W 000°37'612.8
2017-Jun-22 14:30N 36°25' W 000°29'1313.0
2017-Jun-22 13:30N 36°30' W 000°14'613.0
2017-Jun-22 13:00N 36°32' W 000°07'713.1
2017-Jun-22 12:30N 36°33' E 000°01'713.2
2017-Jun-22 12:00N 36°35' E 000°09'713.3
2017-Jun-22 11:30N 36°37' E 000°17'713.3
2017-Jun-22 11:00N 36°38' E 000°25'713.3
2017-Jun-22 10:30N 36°39' E 000°33'713.1
2017-Jun-22 10:00N 36°41' E 000°41'713.2
2017-Jun-22 09:30N 36°43' E 000°49'713.3
2017-Jun-22 09:00N 36°44' E 000°57'713.3
2017-Jun-22 08:30N 36°46' E 001°05'713.5
2017-Jun-22 08:00N 36°48' E 001°13'713.7
2017-Jun-22 07:30N 36°50' E 001°22'713.7
2017-Jun-22 07:00N 36°51' E 001°30'713.4
2017-Jun-22 06:30N 36°53' E 001°38'713.3
2017-Jun-22 06:00N 36°54' E 001°46'713.4
2017-Jun-22 05:30N 36°56' E 001°55'713.4
2017-Jun-22 04:58N 36°57' E 002°03'613.2
2017-Jun-22 04:30N 36°58' E 002°11'713.2
2017-Jun-22 04:00N 36°60' E 002°19'713.1
2017-Jun-22 03:30N 37°01' E 002°27'613.0
2017-Jun-22 03:00N 37°03' E 002°35'613.0
2017-Jun-22 02:30N 37°05' E 002°43'713.2
2017-Jun-22 02:01N 37°06' E 002°51'713.2
2017-Jun-22 01:27N 37°07' E 002°59'613.1
2017-Jun-22 01:00N 37°09' E 003°07'713.2
2017-Jun-22 00:30N 37°11' E 003°15'713.3
2017-Jun-21 23:57N 37°12' E 003°24'613.3
2017-Jun-21 23:30N 37°14' E 003°31'813.3
2017-Jun-21 22:55N 37°15' E 003°41'713.3
2017-Jun-21 22:24N 37°16' E 003°49'513.3
2017-Jun-21 22:00N 37°16' E 003°56'713.2
2017-Jun-21 21:30N 37°17' E 004°04'612.8
2017-Jun-21 21:00N 37°18' E 004°12'713.1
2017-Jun-21 20:30N 37°19' E 004°20'713.2
2017-Jun-21 20:00N 37°20' E 004°28'713.3
2017-Jun-21 19:30N 37°19' E 004°37'713.4
2017-Jun-21 19:00N 37°19' E 004°45'713.4
2017-Jun-21 18:29N 37°19' E 004°54'2813.2
2017-Jun-21 16:22N 37°19' E 005°29'913.0
2017-Jun-21 15:39N 37°19' E 005°41'212.9
2017-Jun-21 15:28N 37°19' E 005°44'612.8
2017-Jun-21 15:00N 37°19' E 005°51'2113.1
2017-Jun-21 13:24N 37°19' E 006°17'512.9
2017-Jun-21 13:00N 37°19' E 006°24'712.9
2017-Jun-21 12:28N 37°19' E 006°33'713.1
2017-Jun-21 11:57N 37°19' E 006°41'612.9
2017-Jun-21 11:30N 37°20' E 006°48'6213.1
2017-Jun-21 06:44N 37°18' E 008°07'312.9
2017-Jun-21 06:29N 37°17' E 008°11'612.8
2017-Jun-21 06:00N 37°17' E 008°19'713.3
2017-Jun-21 05:30N 37°18' E 008°27'6412.9
2017-Jun-21 00:33N 37°35' E 009°44'112.7
2017-Jun-21 00:30N 37°35' E 009°45'2812.4
2017-Jun-20 22:15N 37°38' E 010°20'3712.8
2017-Jun-20 19:20N 37°29' E 011°06'3613.4
2017-Jun-20 16:40N 37°12' E 011°45'313.3
2017-Jun-20 16:28N 37°11' E 011°48'613.4
2017-Jun-20 16:00N 37°08' E 011°55'713.1
2017-Jun-20 15:26N 37°05' E 012°04'613.2
2017-Jun-20 15:00N 37°03' E 012°11'1313.1
2017-Jun-20 14:00N 36°59' E 012°26'713.5
2017-Jun-20 13:30N 36°56' E 012°34'713.7
2017-Jun-20 13:00N 36°53' E 012°42'713.2
2017-Jun-20 12:30N 36°52' E 012°50'713.2
2017-Jun-20 12:00N 36°50' E 012°58'713.5
2017-Jun-20 11:30N 36°48' E 013°06'713.4
2017-Jun-20 11:00N 36°46' E 013°14'713.2
2017-Jun-20 10:30N 36°44' E 013°22'713.1
2017-Jun-20 10:00N 36°42' E 013°30'713.1
2017-Jun-20 09:30N 36°41' E 013°38'713.1
2017-Jun-20 09:00N 36°39' E 013°45'613.1
2017-Jun-20 08:30N 36°37' E 013°53'713.4
2017-Jun-20 08:00N 36°34' E 014°01'713.5
2017-Jun-20 07:30N 36°32' E 014°09'713.4
2017-Jun-20 07:00N 36°29' E 014°16'713.2
2017-Jun-20 06:30N 36°27' E 014°24'713.1
2017-Jun-20 06:00N 36°26' E 014°32'713.1
2017-Jun-20 05:30N 36°24' E 014°40'713.2
2017-Jun-20 05:00N 36°22' E 014°47'713.3
2017-Jun-20 04:28N 36°20' E 014°56'613.1
2017-Jun-20 03:59N 36°19' E 015°04'44310.1
2017-Jun-18 08:19N 37°37' E 024°09'914.1
2017-Jun-18 07:40N 37°43' E 024°17'13513.4
2017-Jun-17 21:38N 39°41' E 025°41'613.4
2017-Jun-17 21:09N 39°47' E 025°44'313.3
2017-Jun-17 20:57N 39°50' E 025°45'  
2017-Jun-15 12:25N 46°19' E 030°55'410.2
2017-Jun-15 11:59N 46°23' E 030°55'510.0
2017-Jun-15 11:30N 46°28' E 030°55'5 8.2
2017-Jun-15 10:52N 46°33' E 030°58'  

Dump ship's entire track history